sensor_id;sensor_type;location;lat;lon;timestamp;P1;durP1;ratioP1;P2;durP2;ratioP2
16826;SDS011;8530;49.540;8.576;2024-01-16T00:02:05;10.67;;;6.93;;
16826;SDS011;8530;49.540;8.576;2024-01-16T00:04:33;7.50;;;6.33;;
16826;SDS011;8530;49.540;8.576;2024-01-16T00:07:02;7.60;;;6.87;;
16826;SDS011;8530;49.540;8.576;2024-01-16T00:09:29;8.93;;;7.93;;
16826;SDS011;8530;49.540;8.576;2024-01-16T00:11:56;13.87;;;8.43;;
16826;SDS011;8530;49.540;8.576;2024-01-16T00:14:22;8.00;;;7.20;;
16826;SDS011;8530;49.540;8.576;2024-01-16T00:16:49;7.67;;;6.87;;
16826;SDS011;8530;49.540;8.576;2024-01-16T00:19:17;11.50;;;8.70;;
16826;SDS011;8530;49.540;8.576;2024-01-16T00:21:44;8.30;;;7.50;;
16826;SDS011;8530;49.540;8.576;2024-01-16T00:24:12;9.10;;;8.20;;
16826;SDS011;8530;49.540;8.576;2024-01-16T00:26:39;10.83;;;8.93;;
16826;SDS011;8530;49.540;8.576;2024-01-16T00:29:05;14.43;;;8.53;;
16826;SDS011;8530;49.540;8.576;2024-01-16T00:31:34;12.00;;;7.87;;
16826;SDS011;8530;49.540;8.576;2024-01-16T00:34:00;10.00;;;7.80;;
16826;SDS011;8530;49.540;8.576;2024-01-16T00:36:29;10.63;;;8.47;;
16826;SDS011;8530;49.540;8.576;2024-01-16T00:38:56;9.43;;;8.53;;
16826;SDS011;8530;49.540;8.576;2024-01-16T00:41:23;10.60;;;8.83;;
16826;SDS011;8530;49.540;8.576;2024-01-16T00:43:50;12.47;;;9.37;;
16826;SDS011;8530;49.540;8.576;2024-01-16T00:46:16;10.43;;;9.43;;
16826;SDS011;8530;49.540;8.576;2024-01-16T00:48:43;17.60;;;10.10;;
16826;SDS011;8530;49.540;8.576;2024-01-16T00:51:10;10.90;;;9.80;;
16826;SDS011;8530;49.540;8.576;2024-01-16T00:53:40;14.53;;;9.07;;
16826;SDS011;8530;49.540;8.576;2024-01-16T00:56:07;14.37;;;9.23;;
16826;SDS011;8530;49.540;8.576;2024-01-16T00:58:34;15.00;;;10.43;;
16826;SDS011;8530;49.540;8.576;2024-01-16T01:01:01;12.10;;;10.00;;
16826;SDS011;8530;49.540;8.576;2024-01-16T01:03:28;21.30;;;11.17;;
16826;SDS011;8530;49.540;8.576;2024-01-16T01:05:55;13.77;;;10.53;;
16826;SDS011;8530;49.540;8.576;2024-01-16T01:08:22;12.03;;;9.97;;
16826;SDS011;8530;49.540;8.576;2024-01-16T01:10:50;12.17;;;9.67;;
16826;SDS011;8530;49.540;8.576;2024-01-16T01:13:16;11.27;;;9.30;;
16826;SDS011;8530;49.540;8.576;2024-01-16T01:15:43;13.30;;;10.43;;
16826;SDS011;8530;49.540;8.576;2024-01-16T01:18:10;13.27;;;9.57;;
16826;SDS011;8530;49.540;8.576;2024-01-16T01:20:37;13.00;;;10.43;;
16826;SDS011;8530;49.540;8.576;2024-01-16T01:23:03;12.00;;;9.70;;
16826;SDS011;8530;49.540;8.576;2024-01-16T01:25:30;14.50;;;9.80;;
16826;SDS011;8530;49.540;8.576;2024-01-16T01:27:58;16.83;;;11.50;;
16826;SDS011;8530;49.540;8.576;2024-01-16T01:30:25;11.40;;;10.20;;
16826;SDS011;8530;49.540;8.576;2024-01-16T01:32:52;10.47;;;9.27;;
16826;SDS011;8530;49.540;8.576;2024-01-16T01:35:18;12.37;;;10.80;;
16826;SDS011;8530;49.540;8.576;2024-01-16T01:37:45;14.57;;;9.67;;
16826;SDS011;8530;49.540;8.576;2024-01-16T01:40:12;15.90;;;11.07;;
16826;SDS011;8530;49.540;8.576;2024-01-16T01:42:40;12.60;;;10.60;;
16826;SDS011;8530;49.540;8.576;2024-01-16T01:45:09;15.13;;;11.30;;
16826;SDS011;8530;49.540;8.576;2024-01-16T01:47:36;13.27;;;11.00;;
16826;SDS011;8530;49.540;8.576;2024-01-16T01:50:04;16.10;;;9.90;;
16826;SDS011;8530;49.540;8.576;2024-01-16T01:52:33;18.30;;;12.07;;
16826;SDS011;8530;49.540;8.576;2024-01-16T01:54:59;13.30;;;10.97;;
16826;SDS011;8530;49.540;8.576;2024-01-16T01:57:27;14.50;;;10.53;;
16826;SDS011;8530;49.540;8.576;2024-01-16T01:59:55;16.27;;;11.37;;
16826;SDS011;8530;49.540;8.576;2024-01-16T02:02:23;18.50;;;10.93;;
16826;SDS011;8530;49.540;8.576;2024-01-16T02:04:50;14.43;;;10.80;;
16826;SDS011;8530;49.540;8.576;2024-01-16T02:07:17;14.33;;;10.73;;
16826;SDS011;8530;49.540;8.576;2024-01-16T02:09:44;16.30;;;10.80;;
16826;SDS011;8530;49.540;8.576;2024-01-16T02:12:10;19.73;;;11.37;;
16826;SDS011;8530;49.540;8.576;2024-01-16T02:14:37;13.83;;;11.60;;
16826;SDS011;8530;49.540;8.576;2024-01-16T02:17:04;16.90;;;12.10;;
16826;SDS011;8530;49.540;8.576;2024-01-16T02:19:32;16.73;;;9.83;;
16826;SDS011;8530;49.540;8.576;2024-01-16T02:22:00;12.73;;;10.60;;
16826;SDS011;8530;49.540;8.576;2024-01-16T02:24:31;20.43;;;10.60;;
16826;SDS011;8530;49.540;8.576;2024-01-16T02:26:58;14.60;;;11.37;;
16826;SDS011;8530;49.540;8.576;2024-01-16T02:29:25;16.50;;;11.10;;
16826;SDS011;8530;49.540;8.576;2024-01-16T02:31:51;12.57;;;9.80;;
16826;SDS011;8530;49.540;8.576;2024-01-16T02:34:18;15.17;;;10.67;;
16826;SDS011;8530;49.540;8.576;2024-01-16T02:36:45;10.57;;;9.53;;
16826;SDS011;8530;49.540;8.576;2024-01-16T02:39:11;15.90;;;10.10;;
16826;SDS011;8530;49.540;8.576;2024-01-16T02:41:39;18.20;;;10.33;;
16826;SDS011;8530;49.540;8.576;2024-01-16T02:44:06;20.40;;;11.27;;
16826;SDS011;8530;49.540;8.576;2024-01-16T02:49:55;15.40;;;10.73;;
16826;SDS011;8530;49.540;8.576;2024-01-16T02:52:22;20.30;;;10.70;;
16826;SDS011;8530;49.540;8.576;2024-01-16T02:54:49;12.80;;;10.50;;
16826;SDS011;8530;49.540;8.576;2024-01-16T02:57:17;17.50;;;11.60;;
16826;SDS011;8530;49.540;8.576;2024-01-16T02:59:44;14.20;;;12.20;;
16826;SDS011;8530;49.540;8.576;2024-01-16T03:02:11;16.40;;;10.67;;
16826;SDS011;8530;49.540;8.576;2024-01-16T03:04:38;18.50;;;11.20;;
16826;SDS011;8530;49.540;8.576;2024-01-16T03:07:05;15.70;;;11.97;;
16826;SDS011;8530;49.540;8.576;2024-01-16T03:09:32;16.87;;;11.43;;
16826;SDS011;8530;49.540;8.576;2024-01-16T03:11:59;15.60;;;12.00;;
16826;SDS011;8530;49.540;8.576;2024-01-16T03:14:27;12.10;;;10.80;;
16826;SDS011;8530;49.540;8.576;2024-01-16T03:16:58;15.73;;;10.60;;
16826;SDS011;8530;49.540;8.576;2024-01-16T03:19:26;11.40;;;10.00;;
16826;SDS011;8530;49.540;8.576;2024-01-16T03:21:53;16.43;;;11.17;;
16826;SDS011;8530;49.540;8.576;2024-01-16T03:24:20;16.97;;;12.07;;
16826;SDS011;8530;49.540;8.576;2024-01-16T03:26:47;16.17;;;10.70;;
16826;SDS011;8530;49.540;8.576;2024-01-16T03:29:13;14.97;;;11.10;;
16826;SDS011;8530;49.540;8.576;2024-01-16T03:31:42;16.07;;;11.50;;
16826;SDS011;8530;49.540;8.576;2024-01-16T03:34:09;21.73;;;13.10;;
16826;SDS011;8530;49.540;8.576;2024-01-16T03:36:36;16.23;;;12.70;;
16826;SDS011;8530;49.540;8.576;2024-01-16T03:39:03;19.43;;;11.97;;
16826;SDS011;8530;49.540;8.576;2024-01-16T03:41:30;16.03;;;11.10;;
16826;SDS011;8530;49.540;8.576;2024-01-16T03:43:57;18.73;;;11.47;;
16826;SDS011;8530;49.540;8.576;2024-01-16T03:46:24;14.17;;;11.07;;
16826;SDS011;8530;49.540;8.576;2024-01-16T03:48:52;15.97;;;11.20;;
16826;SDS011;8530;49.540;8.576;2024-01-16T03:51:19;17.43;;;10.93;;
16826;SDS011;8530;49.540;8.576;2024-01-16T03:53:45;15.40;;;11.37;;
16826;SDS011;8530;49.540;8.576;2024-01-16T03:56:13;22.73;;;10.60;;
16826;SDS011;8530;49.540;8.576;2024-01-16T03:58:41;15.23;;;11.30;;
16826;SDS011;8530;49.540;8.576;2024-01-16T04:01:08;20.40;;;11.03;;
16826;SDS011;8530;49.540;8.576;2024-01-16T04:03:35;18.97;;;11.37;;
16826;SDS011;8530;49.540;8.576;2024-01-16T04:06:13;15.80;;;10.90;;
16826;SDS011;8530;49.540;8.576;2024-01-16T04:08:40;18.17;;;12.60;;
16826;SDS011;8530;49.540;8.576;2024-01-16T04:11:11;14.60;;;12.00;;
16826;SDS011;8530;49.540;8.576;2024-01-16T04:13:37;17.67;;;11.57;;
16826;SDS011;8530;49.540;8.576;2024-01-16T04:16:04;14.33;;;10.90;;
16826;SDS011;8530;49.540;8.576;2024-01-16T04:18:34;20.07;;;12.13;;
16826;SDS011;8530;49.540;8.576;2024-01-16T04:21:01;15.10;;;11.90;;
16826;SDS011;8530;49.540;8.576;2024-01-16T04:23:29;18.83;;;10.80;;
16826;SDS011;8530;49.540;8.576;2024-01-16T04:25:56;12.87;;;10.73;;
16826;SDS011;8530;49.540;8.576;2024-01-16T04:28:23;18.60;;;11.77;;
16826;SDS011;8530;49.540;8.576;2024-01-16T04:30:49;19.00;;;13.20;;
16826;SDS011;8530;49.540;8.576;2024-01-16T04:33:16;13.87;;;11.77;;
16826;SDS011;8530;49.540;8.576;2024-01-16T04:35:43;18.07;;;11.87;;
16826;SDS011;8530;49.540;8.576;2024-01-16T04:38:10;18.73;;;12.47;;
16826;SDS011;8530;49.540;8.576;2024-01-16T04:40:38;19.53;;;11.80;;
16826;SDS011;8530;49.540;8.576;2024-01-16T04:43:05;12.97;;;10.47;;
16826;SDS011;8530;49.540;8.576;2024-01-16T04:45:31;16.40;;;11.60;;
16826;SDS011;8530;49.540;8.576;2024-01-16T04:47:58;17.07;;;11.30;;
16826;SDS011;8530;49.540;8.576;2024-01-16T04:50:25;14.17;;;11.70;;
16826;SDS011;8530;49.540;8.576;2024-01-16T04:52:56;13.93;;;12.00;;
16826;SDS011;8530;49.540;8.576;2024-01-16T04:55:24;22.77;;;12.93;;
16826;SDS011;8530;49.540;8.576;2024-01-16T04:57:53;17.23;;;11.97;;
16826;SDS011;8530;49.540;8.576;2024-01-16T05:00:20;17.53;;;12.07;;
16826;SDS011;8530;49.540;8.576;2024-01-16T05:02:48;18.50;;;13.20;;
16826;SDS011;8530;49.540;8.576;2024-01-16T05:05:16;15.37;;;11.87;;
16826;SDS011;8530;49.540;8.576;2024-01-16T05:07:43;16.67;;;12.37;;
16826;SDS011;8530;49.540;8.576;2024-01-16T05:10:10;15.80;;;12.20;;
16826;SDS011;8530;49.540;8.576;2024-01-16T05:12:37;13.73;;;12.20;;
16826;SDS011;8530;49.540;8.576;2024-01-16T05:15:06;17.13;;;12.30;;
16826;SDS011;8530;49.540;8.576;2024-01-16T05:17:33;12.43;;;10.63;;
16826;SDS011;8530;49.540;8.576;2024-01-16T05:20:01;15.73;;;11.43;;
16826;SDS011;8530;49.540;8.576;2024-01-16T05:22:29;16.13;;;11.33;;
16826;SDS011;8530;49.540;8.576;2024-01-16T05:24:56;16.27;;;11.90;;
16826;SDS011;8530;49.540;8.576;2024-01-16T05:27:23;15.27;;;12.23;;
16826;SDS011;8530;49.540;8.576;2024-01-16T05:29:50;11.80;;;10.60;;
16826;SDS011;8530;49.540;8.576;2024-01-16T05:32:18;16.47;;;12.30;;
16826;SDS011;8530;49.540;8.576;2024-01-16T05:34:45;18.93;;;12.63;;
16826;SDS011;8530;49.540;8.576;2024-01-16T05:37:11;15.67;;;11.87;;
16826;SDS011;8530;49.540;8.576;2024-01-16T05:39:38;14.70;;;11.37;;
16826;SDS011;8530;49.540;8.576;2024-01-16T05:42:06;13.87;;;12.33;;
16826;SDS011;8530;49.540;8.576;2024-01-16T05:44:32;18.00;;;13.23;;
16826;SDS011;8530;49.540;8.576;2024-01-16T05:46:59;18.80;;;11.80;;
16826;SDS011;8530;49.540;8.576;2024-01-16T05:49:28;16.73;;;11.63;;
16826;SDS011;8530;49.540;8.576;2024-01-16T05:51:55;20.10;;;11.33;;
16826;SDS011;8530;49.540;8.576;2024-01-16T05:54:22;14.80;;;10.80;;
16826;SDS011;8530;49.540;8.576;2024-01-16T05:56:48;18.07;;;11.30;;
16826;SDS011;8530;49.540;8.576;2024-01-16T05:59:16;15.93;;;12.90;;
16826;SDS011;8530;49.540;8.576;2024-01-16T06:01:43;16.80;;;12.43;;
16826;SDS011;8530;49.540;8.576;2024-01-16T06:04:10;16.40;;;11.90;;
16826;SDS011;8530;49.540;8.576;2024-01-16T06:06:38;20.63;;;12.40;;
16826;SDS011;8530;49.540;8.576;2024-01-16T06:09:08;15.90;;;12.47;;
16826;SDS011;8530;49.540;8.576;2024-01-16T06:11:38;13.70;;;11.33;;
16826;SDS011;8530;49.540;8.576;2024-01-16T06:14:06;16.00;;;11.57;;
16826;SDS011;8530;49.540;8.576;2024-01-16T06:16:33;14.83;;;12.17;;
16826;SDS011;8530;49.540;8.576;2024-01-16T06:19:00;21.10;;;12.10;;
16826;SDS011;8530;49.540;8.576;2024-01-16T06:21:26;18.10;;;12.93;;
16826;SDS011;8530;49.540;8.576;2024-01-16T06:23:54;19.43;;;13.07;;
16826;SDS011;8530;49.540;8.576;2024-01-16T06:26:21;16.53;;;11.80;;
16826;SDS011;8530;49.540;8.576;2024-01-16T06:28:48;22.40;;;12.07;;
16826;SDS011;8530;49.540;8.576;2024-01-16T06:31:15;14.90;;;11.43;;
16826;SDS011;8530;49.540;8.576;2024-01-16T06:33:42;21.47;;;11.17;;
16826;SDS011;8530;49.540;8.576;2024-01-16T06:36:09;17.00;;;10.70;;
16826;SDS011;8530;49.540;8.576;2024-01-16T06:38:37;20.17;;;13.30;;
16826;SDS011;8530;49.540;8.576;2024-01-16T06:41:06;20.97;;;12.87;;
16826;SDS011;8530;49.540;8.576;2024-01-16T06:43:32;22.60;;;12.80;;
16826;SDS011;8530;49.540;8.576;2024-01-16T06:45:59;26.13;;;13.03;;
16826;SDS011;8530;49.540;8.576;2024-01-16T06:48:26;21.47;;;13.40;;
16826;SDS011;8530;49.540;8.576;2024-01-16T06:50:52;18.63;;;12.20;;
16826;SDS011;8530;49.540;8.576;2024-01-16T06:53:19;20.80;;;12.17;;
16826;SDS011;8530;49.540;8.576;2024-01-16T06:55:47;14.20;;;12.03;;
16826;SDS011;8530;49.540;8.576;2024-01-16T06:58:15;16.60;;;12.27;;
16826;SDS011;8530;49.540;8.576;2024-01-16T07:00:42;16.67;;;11.43;;
16826;SDS011;8530;49.540;8.576;2024-01-16T07:03:10;15.73;;;11.90;;
16826;SDS011;8530;49.540;8.576;2024-01-16T07:05:36;16.37;;;12.70;;
16826;SDS011;8530;49.540;8.576;2024-01-16T07:08:03;18.60;;;12.60;;
16826;SDS011;8530;49.540;8.576;2024-01-16T07:10:30;21.43;;;11.47;;
16826;SDS011;8530;49.540;8.576;2024-01-16T07:12:56;13.97;;;10.87;;
16826;SDS011;8530;49.540;8.576;2024-01-16T07:15:24;16.10;;;12.20;;
16826;SDS011;8530;49.540;8.576;2024-01-16T07:17:51;14.90;;;11.83;;
16826;SDS011;8530;49.540;8.576;2024-01-16T07:20:18;13.37;;;11.90;;
16826;SDS011;8530;49.540;8.576;2024-01-16T07:22:45;16.00;;;12.03;;
16826;SDS011;8530;49.540;8.576;2024-01-16T07:25:12;17.20;;;12.20;;
16826;SDS011;8530;49.540;8.576;2024-01-16T07:27:39;18.37;;;13.47;;
16826;SDS011;8530;49.540;8.576;2024-01-16T07:30:07;16.60;;;11.63;;
16826;SDS011;8530;49.540;8.576;2024-01-16T07:32:36;18.43;;;13.13;;
16826;SDS011;8530;49.540;8.576;2024-01-16T07:35:03;18.73;;;11.97;;
16826;SDS011;8530;49.540;8.576;2024-01-16T07:37:30;18.10;;;12.43;;
16826;SDS011;8530;49.540;8.576;2024-01-16T07:39:57;17.77;;;12.37;;
16826;SDS011;8530;49.540;8.576;2024-01-16T07:42:24;16.97;;;12.50;;
16826;SDS011;8530;49.540;8.576;2024-01-16T07:44:52;18.30;;;13.10;;
16826;SDS011;8530;49.540;8.576;2024-01-16T07:47:20;17.10;;;12.47;;
16826;SDS011;8530;49.540;8.576;2024-01-16T07:49:48;14.13;;;11.20;;
16826;SDS011;8530;49.540;8.576;2024-01-16T07:52:15;21.13;;;13.03;;
16826;SDS011;8530;49.540;8.576;2024-01-16T07:54:41;17.60;;;13.50;;
16826;SDS011;8530;49.540;8.576;2024-01-16T07:57:08;16.77;;;10.57;;
16826;SDS011;8530;49.540;8.576;2024-01-16T07:59:35;19.00;;;12.60;;
16826;SDS011;8530;49.540;8.576;2024-01-16T08:02:02;17.00;;;12.70;;
16826;SDS011;8530;49.540;8.576;2024-01-16T08:04:30;17.60;;;12.50;;
16826;SDS011;8530;49.540;8.576;2024-01-16T08:06:58;15.37;;;12.43;;
16826;SDS011;8530;49.540;8.576;2024-01-16T08:09:25;13.33;;;11.60;;
16826;SDS011;8530;49.540;8.576;2024-01-16T08:11:52;13.83;;;11.73;;
16826;SDS011;8530;49.540;8.576;2024-01-16T08:14:18;19.73;;;13.47;;
16826;SDS011;8530;49.540;8.576;2024-01-16T08:16:45;15.23;;;10.43;;
16826;SDS011;8530;49.540;8.576;2024-01-16T08:19:13;13.77;;;11.20;;
16826;SDS011;8530;49.540;8.576;2024-01-16T08:21:39;16.00;;;10.33;;
16826;SDS011;8530;49.540;8.576;2024-01-16T08:24:07;18.10;;;12.20;;
16826;SDS011;8530;49.540;8.576;2024-01-16T08:26:34;15.37;;;12.20;;
16826;SDS011;8530;49.540;8.576;2024-01-16T08:29:01;15.50;;;12.00;;
16826;SDS011;8530;49.540;8.576;2024-01-16T08:31:28;13.20;;;10.40;;
16826;SDS011;8530;49.540;8.576;2024-01-16T08:33:55;15.63;;;11.77;;
16826;SDS011;8530;49.540;8.576;2024-01-16T08:36:22;20.93;;;12.50;;
16826;SDS011;8530;49.540;8.576;2024-01-16T08:38:49;18.20;;;12.10;;
16826;SDS011;8530;49.540;8.576;2024-01-16T08:41:17;15.63;;;11.57;;
16826;SDS011;8530;49.540;8.576;2024-01-16T08:43:45;15.47;;;11.57;;
16826;SDS011;8530;49.540;8.576;2024-01-16T08:46:12;18.40;;;10.97;;
16826;SDS011;8530;49.540;8.576;2024-01-16T08:48:38;20.77;;;12.40;;
16826;SDS011;8530;49.540;8.576;2024-01-16T08:51:07;16.13;;;11.37;;
16826;SDS011;8530;49.540;8.576;2024-01-16T08:53:34;18.77;;;13.67;;
16826;SDS011;8530;49.540;8.576;2024-01-16T08:56:01;16.97;;;12.20;;
16826;SDS011;8530;49.540;8.576;2024-01-16T08:58:30;16.83;;;12.10;;
16826;SDS011;8530;49.540;8.576;2024-01-16T09:01:00;21.40;;;12.97;;
16826;SDS011;8530;49.540;8.576;2024-01-16T09:03:27;24.03;;;13.90;;
16826;SDS011;8530;49.540;8.576;2024-01-16T09:05:54;17.00;;;11.30;;
16826;SDS011;8530;49.540;8.576;2024-01-16T09:08:20;18.50;;;13.03;;
16826;SDS011;8530;49.540;8.576;2024-01-16T09:10:47;15.80;;;12.03;;
16826;SDS011;8530;49.540;8.576;2024-01-16T09:13:14;17.30;;;11.07;;
16826;SDS011;8530;49.540;8.576;2024-01-16T09:15:42;20.10;;;12.30;;
16826;SDS011;8530;49.540;8.576;2024-01-16T09:18:08;17.93;;;11.83;;
16826;SDS011;8530;49.540;8.576;2024-01-16T09:20:35;13.60;;;10.70;;
16826;SDS011;8530;49.540;8.576;2024-01-16T09:23:02;21.87;;;11.90;;
16826;SDS011;8530;49.540;8.576;2024-01-16T09:25:29;19.50;;;11.23;;
16826;SDS011;8530;49.540;8.576;2024-01-16T09:27:55;14.30;;;10.70;;
16826;SDS011;8530;49.540;8.576;2024-01-16T09:30:22;16.00;;;10.83;;
16826;SDS011;8530;49.540;8.576;2024-01-16T09:32:50;19.27;;;12.40;;
16826;SDS011;8530;49.540;8.576;2024-01-16T09:35:17;23.83;;;13.10;;
16826;SDS011;8530;49.540;8.576;2024-01-16T09:37:43;16.73;;;12.10;;
16826;SDS011;8530;49.540;8.576;2024-01-16T09:40:10;14.83;;;11.33;;
16826;SDS011;8530;49.540;8.576;2024-01-16T09:42:38;15.13;;;11.03;;
16826;SDS011;8530;49.540;8.576;2024-01-16T09:45:06;19.97;;;12.70;;
16826;SDS011;8530;49.540;8.576;2024-01-16T09:47:34;25.33;;;11.67;;
16826;SDS011;8530;49.540;8.576;2024-01-16T09:50:05;15.47;;;11.70;;
16826;SDS011;8530;49.540;8.576;2024-01-16T09:52:32;18.13;;;11.87;;
16826;SDS011;8530;49.540;8.576;2024-01-16T09:55:01;18.20;;;11.70;;
16826;SDS011;8530;49.540;8.576;2024-01-16T09:57:29;17.60;;;12.50;;
16826;SDS011;8530;49.540;8.576;2024-01-16T09:59:57;19.13;;;11.90;;
16826;SDS011;8530;49.540;8.576;2024-01-16T10:02:28;18.50;;;11.73;;
16826;SDS011;8530;49.540;8.576;2024-01-16T10:04:57;20.00;;;13.50;;
16826;SDS011;8530;49.540;8.576;2024-01-16T10:07:26;20.60;;;13.17;;
16826;SDS011;8530;49.540;8.576;2024-01-16T10:09:55;16.20;;;12.43;;
16826;SDS011;8530;49.540;8.576;2024-01-16T10:12:22;20.50;;;13.60;;
16826;SDS011;8530;49.540;8.576;2024-01-16T10:14:50;17.73;;;12.10;;
16826;SDS011;8530;49.540;8.576;2024-01-16T10:17:17;13.47;;;10.77;;
16826;SDS011;8530;49.540;8.576;2024-01-16T10:19:47;18.57;;;12.77;;
16826;SDS011;8530;49.540;8.576;2024-01-16T10:22:19;16.10;;;11.30;;
16826;SDS011;8530;49.540;8.576;2024-01-16T10:24:48;17.90;;;12.30;;
16826;SDS011;8530;49.540;8.576;2024-01-16T10:27:15;16.30;;;13.43;;
16826;SDS011;8530;49.540;8.576;2024-01-16T10:29:45;17.70;;;11.13;;
16826;SDS011;8530;49.540;8.576;2024-01-16T10:32:26;16.53;;;11.10;;
16826;SDS011;8530;49.540;8.576;2024-01-16T10:35:00;17.60;;;14.17;;
16826;SDS011;8530;49.540;8.576;2024-01-16T10:37:29;16.10;;;13.00;;
16826;SDS011;8530;49.540;8.576;2024-01-16T10:39:57;19.30;;;12.90;;
16826;SDS011;8530;49.540;8.576;2024-01-16T10:42:24;17.40;;;12.27;;
16826;SDS011;8530;49.540;8.576;2024-01-16T10:44:54;15.60;;;12.07;;
16826;SDS011;8530;49.540;8.576;2024-01-16T10:47:21;16.10;;;11.23;;
16826;SDS011;8530;49.540;8.576;2024-01-16T10:49:48;16.47;;;11.50;;
16826;SDS011;8530;49.540;8.576;2024-01-16T10:52:15;18.17;;;10.93;;
16826;SDS011;8530;49.540;8.576;2024-01-16T10:54:44;15.73;;;12.37;;
16826;SDS011;8530;49.540;8.576;2024-01-16T10:57:15;13.60;;;10.57;;
16826;SDS011;8530;49.540;8.576;2024-01-16T10:59:45;17.27;;;12.10;;
16826;SDS011;8530;49.540;8.576;2024-01-16T11:02:21;15.70;;;12.80;;
16826;SDS011;8530;49.540;8.576;2024-01-16T11:04:53;19.10;;;12.50;;
16826;SDS011;8530;49.540;8.576;2024-01-16T11:07:22;18.70;;;11.40;;
16826;SDS011;8530;49.540;8.576;2024-01-16T11:09:51;15.97;;;12.67;;
16826;SDS011;8530;49.540;8.576;2024-01-16T11:12:20;18.40;;;12.27;;
16826;SDS011;8530;49.540;8.576;2024-01-16T11:14:48;14.93;;;12.10;;
16826;SDS011;8530;49.540;8.576;2024-01-16T11:17:17;22.30;;;12.27;;
16826;SDS011;8530;49.540;8.576;2024-01-16T11:19:46;23.53;;;14.43;;
16826;SDS011;8530;49.540;8.576;2024-01-16T11:22:14;21.63;;;11.07;;
16826;SDS011;8530;49.540;8.576;2024-01-16T11:24:41;17.57;;;12.37;;
16826;SDS011;8530;49.540;8.576;2024-01-16T11:27:11;23.30;;;13.00;;
16826;SDS011;8530;49.540;8.576;2024-01-16T11:29:49;15.90;;;12.90;;
16826;SDS011;8530;49.540;8.576;2024-01-16T11:32:32;18.80;;;11.50;;
16826;SDS011;8530;49.540;8.576;2024-01-16T11:34:59;18.30;;;12.30;;
16826;SDS011;8530;49.540;8.576;2024-01-16T11:37:26;15.23;;;11.47;;
16826;SDS011;8530;49.540;8.576;2024-01-16T11:42:48;17.33;;;11.70;;
16826;SDS011;8530;49.540;8.576;2024-01-16T11:48:18;14.20;;;10.90;;
16826;SDS011;8530;49.540;8.576;2024-01-16T11:50:45;13.93;;;10.80;;
16826;SDS011;8530;49.540;8.576;2024-01-16T11:53:31;13.93;;;11.37;;
16826;SDS011;8530;49.540;8.576;2024-01-16T11:56:10;17.37;;;11.50;;
16826;SDS011;8530;49.540;8.576;2024-01-16T11:58:57;15.53;;;11.23;;
16826;SDS011;8530;49.540;8.576;2024-01-16T12:01:35;14.90;;;10.77;;
16826;SDS011;8530;49.540;8.576;2024-01-16T12:04:02;16.30;;;11.63;;
16826;SDS011;8530;49.540;8.576;2024-01-16T12:06:29;21.00;;;10.70;;
16826;SDS011;8530;49.540;8.576;2024-01-16T12:09:10;26.77;;;12.17;;
16826;SDS011;8530;49.540;8.576;2024-01-16T12:11:37;19.60;;;12.60;;
16826;SDS011;8530;49.540;8.576;2024-01-16T12:14:06;18.50;;;11.30;;
16826;SDS011;8530;49.540;8.576;2024-01-16T12:16:32;19.70;;;12.80;;
16826;SDS011;8530;49.540;8.576;2024-01-16T12:19:05;13.63;;;10.73;;
16826;SDS011;8530;49.540;8.576;2024-01-16T12:21:33;14.10;;;12.17;;
16826;SDS011;8530;49.540;8.576;2024-01-16T12:24:00;18.87;;;11.60;;
16826;SDS011;8530;49.540;8.576;2024-01-16T12:26:26;16.87;;;11.07;;
16826;SDS011;8530;49.540;8.576;2024-01-16T12:28:53;15.27;;;11.30;;
16826;SDS011;8530;49.540;8.576;2024-01-16T12:31:21;16.03;;;11.70;;
16826;SDS011;8530;49.540;8.576;2024-01-16T12:33:48;18.50;;;12.60;;
16826;SDS011;8530;49.540;8.576;2024-01-16T12:36:15;19.63;;;11.80;;
16826;SDS011;8530;49.540;8.576;2024-01-16T12:38:42;15.03;;;11.00;;
16826;SDS011;8530;49.540;8.576;2024-01-16T12:41:09;15.50;;;11.03;;
16826;SDS011;8530;49.540;8.576;2024-01-16T12:43:37;15.00;;;11.07;;
16826;SDS011;8530;49.540;8.576;2024-01-16T12:46:06;23.40;;;12.10;;
16826;SDS011;8530;49.540;8.576;2024-01-16T12:48:34;16.60;;;11.30;;
16826;SDS011;8530;49.540;8.576;2024-01-16T12:51:02;16.60;;;10.87;;
16826;SDS011;8530;49.540;8.576;2024-01-16T12:53:32;16.30;;;10.17;;
16826;SDS011;8530;49.540;8.576;2024-01-16T12:56:02;15.00;;;11.40;;
16826;SDS011;8530;49.540;8.576;2024-01-16T12:58:32;14.57;;;11.40;;
16826;SDS011;8530;49.540;8.576;2024-01-16T13:01:04;13.53;;;10.37;;
16826;SDS011;8530;49.540;8.576;2024-01-16T13:03:51;12.47;;;9.50;;
16826;SDS011;8530;49.540;8.576;2024-01-16T13:06:18;13.60;;;10.40;;
16826;SDS011;8530;49.540;8.576;2024-01-16T13:08:46;14.83;;;10.80;;
16826;SDS011;8530;49.540;8.576;2024-01-16T13:11:13;15.03;;;10.53;;
16826;SDS011;8530;49.540;8.576;2024-01-16T13:13:44;14.23;;;10.17;;
16826;SDS011;8530;49.540;8.576;2024-01-16T13:16:11;17.60;;;11.70;;
16826;SDS011;8530;49.540;8.576;2024-01-16T13:18:38;15.80;;;9.70;;
16826;SDS011;8530;49.540;8.576;2024-01-16T13:21:06;14.43;;;11.17;;
16826;SDS011;8530;49.540;8.576;2024-01-16T13:23:33;10.93;;;9.07;;
16826;SDS011;8530;49.540;8.576;2024-01-16T13:26:00;22.40;;;13.80;;
16826;SDS011;8530;49.540;8.576;2024-01-16T13:28:28;13.80;;;10.47;;
16826;SDS011;8530;49.540;8.576;2024-01-16T13:30:55;11.30;;;8.97;;
16826;SDS011;8530;49.540;8.576;2024-01-16T13:33:23;17.73;;;11.13;;
16826;SDS011;8530;49.540;8.576;2024-01-16T13:35:51;18.80;;;10.10;;
16826;SDS011;8530;49.540;8.576;2024-01-16T13:38:20;15.80;;;9.13;;
16826;SDS011;8530;49.540;8.576;2024-01-16T13:40:47;16.53;;;9.00;;
16826;SDS011;8530;49.540;8.576;2024-01-16T13:43:15;13.50;;;8.97;;
16826;SDS011;8530;49.540;8.576;2024-01-16T13:45:42;12.77;;;8.80;;
16826;SDS011;8530;49.540;8.576;2024-01-16T13:48:08;15.63;;;9.80;;
16826;SDS011;8530;49.540;8.576;2024-01-16T13:50:35;16.23;;;9.90;;
16826;SDS011;8530;49.540;8.576;2024-01-16T13:53:02;12.43;;;8.70;;
16826;SDS011;8530;49.540;8.576;2024-01-16T13:55:30;13.77;;;9.50;;
16826;SDS011;8530;49.540;8.576;2024-01-16T13:57:57;18.33;;;9.70;;
16826;SDS011;8530;49.540;8.576;2024-01-16T14:00:24;16.00;;;8.83;;
16826;SDS011;8530;49.540;8.576;2024-01-16T14:02:51;13.73;;;8.77;;
16826;SDS011;8530;49.540;8.576;2024-01-16T14:05:18;12.90;;;9.53;;
16826;SDS011;8530;49.540;8.576;2024-01-16T14:07:45;14.00;;;9.67;;
16826;SDS011;8530;49.540;8.576;2024-01-16T14:10:15;17.27;;;9.40;;
16826;SDS011;8530;49.540;8.576;2024-01-16T14:12:46;13.87;;;9.37;;
16826;SDS011;8530;49.540;8.576;2024-01-16T14:15:14;17.97;;;10.73;;
16826;SDS011;8530;49.540;8.576;2024-01-16T14:17:43;14.13;;;9.37;;
16826;SDS011;8530;49.540;8.576;2024-01-16T14:20:11;13.00;;;10.20;;
16826;SDS011;8530;49.540;8.576;2024-01-16T14:22:38;16.67;;;9.50;;
16826;SDS011;8530;49.540;8.576;2024-01-16T14:25:05;12.93;;;8.90;;
16826;SDS011;8530;49.540;8.576;2024-01-16T14:27:36;15.07;;;9.10;;
16826;SDS011;8530;49.540;8.576;2024-01-16T14:30:06;12.65;;;9.40;;
16826;SDS011;8530;49.540;8.576;2024-01-16T14:32:35;19.53;;;9.50;;
16826;SDS011;8530;49.540;8.576;2024-01-16T14:35:04;12.47;;;9.33;;
16826;SDS011;8530;49.540;8.576;2024-01-16T14:37:31;13.13;;;7.83;;
16826;SDS011;8530;49.540;8.576;2024-01-16T14:39:58;12.33;;;9.53;;
16826;SDS011;8530;49.540;8.576;2024-01-16T14:42:26;14.03;;;9.37;;
16826;SDS011;8530;49.540;8.576;2024-01-16T14:44:53;23.03;;;9.90;;
16826;SDS011;8530;49.540;8.576;2024-01-16T14:47:22;11.97;;;9.67;;
16826;SDS011;8530;49.540;8.576;2024-01-16T14:49:49;17.03;;;9.70;;
16826;SDS011;8530;49.540;8.576;2024-01-16T14:52:16;19.07;;;7.87;;